sensor_id;sensor_type;location;lat;lon;timestamp;pressure;altitude;pressure_sealevel;temperature;humidity
33506;BME280;19843;51.040;13.782;2022-11-20T00:00:41;154852.59;;;19.38;100.00
33506;BME280;19843;51.040;13.782;2022-11-20T00:03:08;154856.50;;;19.39;100.00
33506;BME280;19843;51.040;13.782;2022-11-20T00:05:37;154853.88;;;19.38;100.00
33506;BME280;19843;51.040;13.782;2022-11-20T00:08:04;154851.28;;;19.37;100.00
33506;BME280;19843;51.040;13.782;2022-11-20T00:10:32;154851.28;;;19.37;100.00
33506;BME280;19843;51.040;13.782;2022-11-20T00:13:03;154851.28;;;19.37;100.00
33506;BME280;19843;51.040;13.782;2022-11-20T00:15:30;154850.00;;;19.37;100.00
33506;BME280;19843;51.040;13.782;2022-11-20T00:17:58;154848.69;;;19.36;100.00
33506;BME280;19843;51.040;13.782;2022-11-20T00:20:25;154846.09;;;19.35;100.00
33506;BME280;19843;51.040;13.782;2022-11-20T00:22:54;154846.09;;;19.35;100.00
33506;BME280;19843;51.040;13.782;2022-11-20T00:25:22;154846.09;;;19.35;100.00
33506;BME280;19843;51.040;13.782;2022-11-20T00:27:50;154843.53;;;19.34;100.00
33506;BME280;19843;51.040;13.782;2022-11-20T00:30:18;154844.84;;;19.35;100.00
33506;BME280;19843;51.040;13.782;2022-11-20T00:32:45;154843.53;;;19.34;100.00
33506;BME280;19843;51.040;13.782;2022-11-20T00:35:13;154842.22;;;19.34;100.00
33506;BME280;19843;51.040;13.782;2022-11-20T00:37:40;154840.94;;;19.33;100.00
33506;BME280;19843;51.040;13.782;2022-11-20T00:40:10;154840.94;;;19.33;100.00
33506;BME280;19843;51.040;13.782;2022-11-20T00:42:38;154840.94;;;19.33;100.00
33506;BME280;19843;51.040;13.782;2022-11-20T00:45:06;154838.31;;;19.32;100.00
33506;BME280;19843;51.040;13.782;2022-11-20T00:47:33;154835.72;;;19.31;100.00
33506;BME280;19843;51.040;13.782;2022-11-20T00:50:01;154840.94;;;19.33;100.00
33506;BME280;19843;51.040;13.782;2022-11-20T00:52:29;154837.03;;;19.32;100.00
33506;BME280;19843;51.040;13.782;2022-11-20T00:54:56;154835.72;;;19.31;100.00
33506;BME280;19843;51.040;13.782;2022-11-20T00:57:25;154835.72;;;19.31;100.00
33506;BME280;19843;51.040;13.782;2022-11-20T00:59:52;154835.72;;;19.31;100.00
33506;BME280;19843;51.040;13.782;2022-11-20T01:02:20;154833.13;;;19.30;100.00
33506;BME280;19843;51.040;13.782;2022-11-20T01:04:47;154833.13;;;19.30;100.00
33506;BME280;19843;51.040;13.782;2022-11-20T01:07:15;154833.13;;;19.30;100.00
33506;BME280;19843;51.040;13.782;2022-11-20T01:09:42;154833.13;;;19.30;100.00
33506;BME280;19843;51.040;13.782;2022-11-20T01:12:10;154830.56;;;19.29;100.00
33506;BME280;19843;51.040;13.782;2022-11-20T01:14:39;154833.13;;;19.30;100.00
33506;BME280;19843;51.040;13.782;2022-11-20T01:17:06;154830.56;;;19.29;100.00
33506;BME280;19843;51.040;13.782;2022-11-20T01:19:34;154827.97;;;19.28;100.00
33506;BME280;19843;51.040;13.782;2022-11-20T01:22:01;154827.97;;;19.28;100.00
33506;BME280;19843;51.040;13.782;2022-11-20T01:24:29;154826.66;;;19.28;100.00
33506;BME280;19843;51.040;13.782;2022-11-20T01:26:56;154829.28;;;19.29;100.00
33506;BME280;19843;51.040;13.782;2022-11-20T01:29:24;154827.97;;;19.28;100.00
33506;BME280;19843;51.040;13.782;2022-11-20T01:31:53;154826.66;;;19.28;100.00
33506;BME280;19843;51.040;13.782;2022-11-20T01:34:21;154825.38;;;19.27;100.00
33506;BME280;19843;51.040;13.782;2022-11-20T01:36:50;154822.75;;;19.26;100.00
33506;BME280;19843;51.040;13.782;2022-11-20T01:39:20;154825.38;;;19.27;100.00
33506;BME280;19843;51.040;13.782;2022-11-20T01:41:49;154822.75;;;19.26;100.00
33506;BME280;19843;51.040;13.782;2022-11-20T01:44:54;154822.75;;;19.26;100.00
33506;BME280;19843;51.040;13.782;2022-11-20T01:47:29;154820.16;;;19.25;100.00
33506;BME280;19843;51.040;13.782;2022-11-20T01:50:03;154820.16;;;19.25;100.00
33506;BME280;19843;51.040;13.782;2022-11-20T01:52:34;154821.47;;;19.26;100.00
33506;BME280;19843;51.040;13.782;2022-11-20T01:55:06;154820.16;;;19.25;100.00
33506;BME280;19843;51.040;13.782;2022-11-20T01:57:35;154818.88;;;19.25;100.00
33506;BME280;19843;51.040;13.782;2022-11-20T02:00:08;154818.88;;;19.25;100.00
33506;BME280;19843;51.040;13.782;2022-11-20T02:02:39;154817.63;;;19.24;100.00
33506;BME280;19843;51.040;13.782;2022-11-20T02:05:13;154815.00;;;19.23;100.00
33506;BME280;19843;51.040;13.782;2022-11-20T02:07:43;154815.00;;;19.23;100.00
33506;BME280;19843;51.040;13.782;2022-11-20T02:10:11;154815.00;;;19.23;100.00
33506;BME280;19843;51.040;13.782;2022-11-20T02:12:39;154815.00;;;19.23;100.00
33506;BME280;19843;51.040;13.782;2022-11-20T02:15:24;154812.41;;;19.22;100.00
33506;BME280;19843;51.040;13.782;2022-11-20T02:17:57;154813.72;;;19.23;100.00
33506;BME280;19843;51.040;13.782;2022-11-20T02:20:25;154813.72;;;19.23;100.00
33506;BME280;19843;51.040;13.782;2022-11-20T02:22:56;154813.72;;;19.23;100.00
33506;BME280;19843;51.040;13.782;2022-11-20T02:25:27;154812.41;;;19.22;100.00
33506;BME280;19843;51.040;13.782;2022-11-20T02:27:56;154804.59;;;19.19;100.00
33506;BME280;19843;51.040;13.782;2022-11-20T02:30:24;154809.81;;;19.21;100.00
33506;BME280;19843;51.040;13.782;2022-11-20T02:32:51;154804.59;;;19.19;100.00
33506;BME280;19843;51.040;13.782;2022-11-20T02:35:42;154804.59;;;19.19;100.00
33506;BME280;19843;51.040;13.782;2022-11-20T02:38:10;154807.22;;;19.20;100.00
33506;BME280;19843;51.040;13.782;2022-11-20T02:40:39;154804.59;;;19.19;100.00
33506;BME280;19843;51.040;13.782;2022-11-20T02:43:06;154804.59;;;19.19;100.00
33506;BME280;19843;51.040;13.782;2022-11-20T02:45:34;154802.06;;;19.18;100.00
33506;BME280;19843;51.040;13.782;2022-11-20T02:48:02;154802.06;;;19.18;100.00
33506;BME280;19843;51.040;13.782;2022-11-20T02:50:29;154802.06;;;19.18;100.00
33506;BME280;19843;51.040;13.782;2022-11-20T02:52:57;154800.75;;;19.18;100.00
33506;BME280;19843;51.040;13.782;2022-11-20T02:55:24;154799.44;;;19.17;100.00
33506;BME280;19843;51.040;13.782;2022-11-20T02:57:53;154799.44;;;19.17;100.00
33506;BME280;19843;51.040;13.782;2022-11-20T03:00:21;154799.44;;;19.17;100.00
33506;BME280;19843;51.040;13.782;2022-11-20T03:02:49;154796.84;;;19.16;100.00
33506;BME280;19843;51.040;13.782;2022-11-20T03:05:17;154798.16;;;19.17;100.00
33506;BME280;19843;51.040;13.782;2022-11-20T03:07:44;154798.16;;;19.17;100.00
33506;BME280;19843;51.040;13.782;2022-11-20T03:10:12;154796.84;;;19.16;100.00
33506;BME280;19843;51.040;13.782;2022-11-20T03:12:39;154794.25;;;19.15;100.00
33506;BME280;19843;51.040;13.782;2022-11-20T03:15:09;154796.84;;;19.16;100.00
33506;BME280;19843;51.040;13.782;2022-11-20T03:17:37;154792.94;;;19.15;100.00
33506;BME280;19843;51.040;13.782;2022-11-20T03:20:06;154795.56;;;19.16;100.00
33506;BME280;19843;51.040;13.782;2022-11-20T03:22:34;154794.25;;;19.15;100.00
33506;BME280;19843;51.040;13.782;2022-11-20T03:25:01;154794.25;;;19.15;100.00
33506;BME280;19843;51.040;13.782;2022-11-20T03:27:32;154791.66;;;19.14;100.00
33506;BME280;19843;51.040;13.782;2022-11-20T03:29:59;154791.66;;;19.14;100.00
33506;BME280;19843;51.040;13.782;2022-11-20T03:32:28;154791.66;;;19.14;100.00
33506;BME280;19843;51.040;13.782;2022-11-20T03:34:56;154791.66;;;19.14;100.00
33506;BME280;19843;51.040;13.782;2022-11-20T03:37:23;154789.09;;;19.13;100.00
33506;BME280;19843;51.040;13.782;2022-11-20T03:39:51;154789.09;;;19.13;100.00
33506;BME280;19843;51.040;13.782;2022-11-20T03:42:18;154789.09;;;19.13;100.00
33506;BME280;19843;51.040;13.782;2022-11-20T03:45:04;154786.50;;;19.12;100.00
33506;BME280;19843;51.040;13.782;2022-11-20T03:47:33;154789.09;;;19.13;100.00
33506;BME280;19843;51.040;13.782;2022-11-20T03:50:00;154787.78;;;19.13;100.00
33506;BME280;19843;51.040;13.782;2022-11-20T03:52:28;154789.09;;;19.13;100.00
33506;BME280;19843;51.040;13.782;2022-11-20T03:54:55;154789.09;;;19.13;100.00
33506;BME280;19843;51.040;13.782;2022-11-20T03:57:23;154783.91;;;19.11;100.00
33506;BME280;19843;51.040;13.782;2022-11-20T03:59:50;154786.50;;;19.12;100.00
33506;BME280;19843;51.040;13.782;2022-11-20T04:02:18;154787.78;;;19.13;100.00
33506;BME280;19843;51.040;13.782;2022-11-20T04:04:47;154783.91;;;19.11;100.00
33506;BME280;19843;51.040;13.782;2022-11-20T04:07:14;154786.50;;;19.12;100.00
33506;BME280;19843;51.040;13.782;2022-11-20T04:09:42;154787.78;;;19.13;100.00
33506;BME280;19843;51.040;13.782;2022-11-20T04:12:09;154782.59;;;19.11;100.00
33506;BME280;19843;51.040;13.782;2022-11-20T04:14:37;154781.28;;;19.10;100.00
33506;BME280;19843;51.040;13.782;2022-11-20T04:17:04;154781.28;;;19.10;100.00
33506;BME280;19843;51.040;13.782;2022-11-20T04:19:32;154781.28;;;19.10;100.00
33506;BME280;19843;51.040;13.782;2022-11-20T04:22:01;154783.91;;;19.11;100.00
33506;BME280;19843;51.040;13.782;2022-11-20T04:24:28;154781.28;;;19.10;100.00
33506;BME280;19843;51.040;13.782;2022-11-20T04:26:56;154778.69;;;19.09;100.00
33506;BME280;19843;51.040;13.782;2022-11-20T04:29:23;154780.00;;;19.10;100.00
33506;BME280;19843;51.040;13.782;2022-11-20T04:31:50;154778.69;;;19.09;100.00
33506;BME280;19843;51.040;13.782;2022-11-20T04:34:18;154776.13;;;19.08;100.00
33506;BME280;19843;51.040;13.782;2022-11-20T04:36:45;154776.13;;;19.08;100.00
33506;BME280;19843;51.040;13.782;2022-11-20T04:39:15;154776.13;;;19.08;100.00
33506;BME280;19843;51.040;13.782;2022-11-20T04:41:43;154778.69;;;19.09;100.00
33506;BME280;19843;51.040;13.782;2022-11-20T04:44:10;154777.44;;;19.09;100.00
33506;BME280;19843;51.040;13.782;2022-11-20T04:46:40;154777.44;;;19.09;100.00
33506;BME280;19843;51.040;13.782;2022-11-20T04:49:08;154776.13;;;19.08;100.00
33506;BME280;19843;51.040;13.782;2022-11-20T04:51:36;154776.13;;;19.08;100.00
33506;BME280;19843;51.040;13.782;2022-11-20T04:54:03;154773.53;;;19.07;100.00
33506;BME280;19843;51.040;13.782;2022-11-20T04:56:32;154772.22;;;19.07;100.00
33506;BME280;19843;51.040;13.782;2022-11-20T04:59:00;154773.53;;;19.07;100.00
33506;BME280;19843;51.040;13.782;2022-11-20T05:01:28;154772.22;;;19.07;100.00
33506;BME280;19843;51.040;13.782;2022-11-20T05:03:56;154770.94;;;19.06;100.00
33506;BME280;19843;51.040;13.782;2022-11-20T05:06:24;154770.94;;;19.06;100.00
33506;BME280;19843;51.040;13.782;2022-11-20T05:08:51;154770.94;;;19.06;100.00
33506;BME280;19843;51.040;13.782;2022-11-20T05:11:20;154769.63;;;19.06;100.00
33506;BME280;19843;51.040;13.782;2022-11-20T05:13:50;154770.94;;;19.06;100.00
33506;BME280;19843;51.040;13.782;2022-11-20T05:16:21;154769.63;;;19.06;100.00
33506;BME280;19843;51.040;13.782;2022-11-20T05:18:49;154768.34;;;19.05;100.00
33506;BME280;19843;51.040;13.782;2022-11-20T05:21:17;154767.03;;;19.05;100.00
33506;BME280;19843;51.040;13.782;2022-11-20T05:23:45;154768.34;;;19.05;100.00
33506;BME280;19843;51.040;13.782;2022-11-20T05:26:15;154768.34;;;19.05;100.00
33506;BME280;19843;51.040;13.782;2022-11-20T05:28:43;154768.34;;;19.05;100.00
33506;BME280;19843;51.040;13.782;2022-11-20T05:31:13;154765.72;;;19.04;100.00
33506;BME280;19843;51.040;13.782;2022-11-20T05:33:42;154765.72;;;19.04;100.00
33506;BME280;19843;51.040;13.782;2022-11-20T05:36:13;154767.03;;;19.05;100.00
33506;BME280;19843;51.040;13.782;2022-11-20T05:38:41;154763.19;;;19.03;100.00
33506;BME280;19843;51.040;13.782;2022-11-20T05:41:10;154765.72;;;19.04;100.00
33506;BME280;19843;51.040;13.782;2022-11-20T05:43:39;154763.19;;;19.03;100.00
33506;BME280;19843;51.040;13.782;2022-11-20T05:46:08;154763.19;;;19.03;100.00
33506;BME280;19843;51.040;13.782;2022-11-20T05:48:38;154764.44;;;19.04;100.00
33506;BME280;19843;51.040;13.782;2022-11-20T05:51:11;154763.19;;;19.03;100.00
33506;BME280;19843;51.040;13.782;2022-11-20T05:53:39;154765.72;;;19.04;100.00
33506;BME280;19843;51.040;13.782;2022-11-20T05:56:15;154763.19;;;19.03;100.00
33506;BME280;19843;51.040;13.782;2022-11-20T05:58:43;154760.56;;;19.02;100.00
33506;BME280;19843;51.040;13.782;2022-11-20T06:01:16;154759.28;;;19.02;100.00
33506;BME280;19843;51.040;13.782;2022-11-20T06:03:45;154757.97;;;19.01;100.00
33506;BME280;19843;51.040;13.782;2022-11-20T06:06:15;154757.97;;;19.01;100.00
33506;BME280;19843;51.040;13.782;2022-11-20T06:08:42;154757.97;;;19.01;100.00
33506;BME280;19843;51.040;13.782;2022-11-20T06:11:11;154761.88;;;19.03;100.00
33506;BME280;19843;51.040;13.782;2022-11-20T06:13:40;154761.88;;;19.03;100.00
33506;BME280;19843;51.040;13.782;2022-11-20T06:16:08;154761.88;;;19.03;100.00
33506;BME280;19843;51.040;13.782;2022-11-20T06:18:36;154761.88;;;19.03;100.00
33506;BME280;19843;51.040;13.782;2022-11-20T06:21:07;154760.56;;;19.02;100.00
33506;BME280;19843;51.040;13.782;2022-11-20T06:23:35;154760.56;;;19.02;100.00
33506;BME280;19843;51.040;13.782;2022-11-20T06:26:04;154760.56;;;19.02;100.00
33506;BME280;19843;51.040;13.782;2022-11-20T06:28:32;154759.28;;;19.02;100.00
33506;BME280;19843;51.040;13.782;2022-11-20T06:30:59;154760.56;;;19.02;100.00
33506;BME280;19843;51.040;13.782;2022-11-20T06:33:27;154761.88;;;19.03;100.00
33506;BME280;19843;51.040;13.782;2022-11-20T06:35:56;154757.97;;;19.01;100.00
33506;BME280;19843;51.040;13.782;2022-11-20T06:38:29;154760.56;;;19.02;100.00
33506;BME280;19843;51.040;13.782;2022-11-20T06:40:57;154757.97;;;19.01;100.00
33506;BME280;19843;51.040;13.782;2022-11-20T06:43:24;154761.88;;;19.03;100.00
33506;BME280;19843;51.040;13.782;2022-11-20T06:45:52;154760.56;;;19.02;100.00
33506;BME280;19843;51.040;13.782;2022-11-20T06:48:21;154765.72;;;19.04;100.00
33506;BME280;19843;51.040;13.782;2022-11-20T06:50:48;154767.03;;;19.05;100.00
33506;BME280;19843;51.040;13.782;2022-11-20T06:53:16;154768.34;;;19.05;100.00
33506;BME280;19843;51.040;13.782;2022-11-20T06:55:46;154769.63;;;19.06;100.00
33506;BME280;19843;51.040;13.782;2022-11-20T06:58:15;154767.03;;;19.05;100.00
33506;BME280;19843;51.040;13.782;2022-11-20T07:00:43;154773.53;;;19.07;100.00
33506;BME280;19843;51.040;13.782;2022-11-20T07:03:11;154773.53;;;19.07;100.00
33506;BME280;19843;51.040;13.782;2022-11-20T07:05:39;154773.53;;;19.07;100.00
33506;BME280;19843;51.040;13.782;2022-11-20T07:08:07;154774.84;;;19.08;100.00
33506;BME280;19843;51.040;13.782;2022-11-20T07:10:35;154776.13;;;19.08;100.00
33506;BME280;19843;51.040;13.782;2022-11-20T07:13:04;154773.53;;;19.07;100.00
33506;BME280;19843;51.040;13.782;2022-11-20T07:15:33;154774.84;;;19.08;100.00
33506;BME280;19843;51.040;13.782;2022-11-20T07:18:00;154774.84;;;19.08;100.00
33506;BME280;19843;51.040;13.782;2022-11-20T07:20:28;154772.22;;;19.07;100.00
33506;BME280;19843;51.040;13.782;2022-11-20T07:22:56;154770.94;;;19.06;100.00
33506;BME280;19843;51.040;13.782;2022-11-20T07:25:24;154772.22;;;19.07;100.00
33506;BME280;19843;51.040;13.782;2022-11-20T07:27:52;154770.94;;;19.06;100.00
33506;BME280;19843;51.040;13.782;2022-11-20T07:30:21;154769.63;;;19.06;100.00
33506;BME280;19843;51.040;13.782;2022-11-20T07:32:51;154781.28;;;19.10;100.00
33506;BME280;19843;51.040;13.782;2022-11-20T07:35:19;154789.09;;;19.13;100.00
33506;BME280;19843;51.040;13.782;2022-11-20T07:37:46;154783.91;;;19.11;100.00
33506;BME280;19843;51.040;13.782;2022-11-20T07:40:15;154780.00;;;19.10;100.00
33506;BME280;19843;51.040;13.782;2022-11-20T07:42:47;154778.69;;;19.09;100.00
33506;BME280;19843;51.040;13.782;2022-11-20T07:45:14;154773.53;;;19.07;100.00
33506;BME280;19843;51.040;13.782;2022-11-20T07:47:43;154773.53;;;19.07;100.00
33506;BME280;19843;51.040;13.782;2022-11-20T07:50:11;154773.53;;;19.07;100.00
33506;BME280;19843;51.040;13.782;2022-11-20T07:52:39;154774.84;;;19.08;100.00
33506;BME280;19843;51.040;13.782;2022-11-20T07:55:08;154770.94;;;19.06;100.00
33506;BME280;19843;51.040;13.782;2022-11-20T07:57:36;154768.34;;;19.05;100.00
33506;BME280;19843;51.040;13.782;2022-11-20T08:00:05;154772.22;;;19.07;100.00
33506;BME280;19843;51.040;13.782;2022-11-20T08:02:37;154774.84;;;19.08;100.00
33506;BME280;19843;51.040;13.782;2022-11-20T08:05:07;154776.13;;;19.08;100.00
33506;BME280;19843;51.040;13.782;2022-11-20T08:07:36;154790.41;;;19.14;100.00
33506;BME280;19843;51.040;13.782;2022-11-20T08:10:05;154787.78;;;19.13;100.00
33506;BME280;19843;51.040;13.782;2022-11-20T08:12:32;154785.19;;;19.12;100.00
33506;BME280;19843;51.040;13.782;2022-11-20T08:15:18;154815.00;;;19.23;100.00
33506;BME280;19843;51.040;13.782;2022-11-20T08:17:45;154825.38;;;19.27;100.00
33506;BME280;19843;51.040;13.782;2022-11-20T08:20:34;154795.56;;;19.16;100.00
33506;BME280;19843;51.040;13.782;2022-11-20T08:23:04;154789.09;;;19.13;100.00
33506;BME280;19843;51.040;13.782;2022-11-20T08:25:33;154785.19;;;19.12;100.00
33506;BME280;19843;51.040;13.782;2022-11-20T08:28:03;154778.69;;;19.09;100.00
33506;BME280;19843;51.040;13.782;2022-11-20T08:30:43;154778.69;;;19.09;100.00
33506;BME280;19843;51.040;13.782;2022-11-20T08:33:12;154781.28;;;19.10;100.00
33506;BME280;19843;51.040;13.782;2022-11-20T08:35:41;154800.75;;;19.18;100.00
33506;BME280;19843;51.040;13.782;2022-11-20T08:38:09;154822.75;;;19.26;100.00
33506;BME280;19843;51.040;13.782;2022-11-20T08:40:36;154826.66;;;19.28;100.00
33506;BME280;19843;51.040;13.782;2022-11-20T08:43:04;154833.13;;;19.30;100.00
33506;BME280;19843;51.040;13.782;2022-11-20T08:45:31;154840.94;;;19.33;100.00
33506;BME280;19843;51.040;13.782;2022-11-20T08:48:01;154840.94;;;19.33;100.00
33506;BME280;19843;51.040;13.782;2022-11-20T08:50:30;154848.69;;;19.36;100.00
33506;BME280;19843;51.040;13.782;2022-11-20T08:53:03;154848.69;;;19.36;100.00
33506;BME280;19843;51.040;13.782;2022-11-20T08:55:31;154853.88;;;19.38;100.00
33506;BME280;19843;51.040;13.782;2022-11-20T08:58:03;154853.88;;;19.38;100.00
33506;BME280;19843;51.040;13.782;2022-11-20T09:00:30;154855.19;;;19.39;100.00
33506;BME280;19843;51.040;13.782;2022-11-20T09:02:58;154857.78;;;19.40;100.00
33506;BME280;19843;51.040;13.782;2022-11-20T09:05:27;154857.78;;;19.40;100.00
33506;BME280;19843;51.040;13.782;2022-11-20T09:07:56;154861.66;;;19.41;100.00
33506;BME280;19843;51.040;13.782;2022-11-20T09:10:24;154857.78;;;19.40;100.00
33506;BME280;19843;51.040;13.782;2022-11-20T09:12:53;154843.53;;;19.34;100.00
33506;BME280;19843;51.040;13.782;2022-11-20T09:15:21;154833.13;;;19.30;100.00
33506;BME280;19843;51.040;13.782;2022-11-20T09:17:52;154827.97;;;19.28;100.00
33506;BME280;19843;51.040;13.782;2022-11-20T09:20:20;154824.06;;;19.27;100.00
33506;BME280;19843;51.040;13.782;2022-11-20T09:22:47;154820.16;;;19.25;100.00
33506;BME280;19843;51.040;13.782;2022-11-20T09:25:15;154822.75;;;19.26;100.00
33506;BME280;19843;51.040;13.782;2022-11-20T09:27:44;154822.75;;;19.26;100.00
33506;BME280;19843;51.040;13.782;2022-11-20T09:30:13;154751.47;;;18.98;100.00
33506;BME280;19843;51.040;13.782;2022-11-20T09:32:41;154755.38;;;19.00;100.00
33506;BME280;19843;51.040;13.782;2022-11-20T09:35:09;154768.34;;;19.05;100.00
33506;BME280;19843;51.040;13.782;2022-11-20T09:37:37;154782.59;;;19.11;100.00
33506;BME280;19843;51.040;13.782;2022-11-20T09:40:06;154794.25;;;19.15;100.00
33506;BME280;19843;51.040;13.782;2022-11-20T09:42:38;154809.81;;;19.21;100.00
33506;BME280;19843;51.040;13.782;2022-11-20T09:45:23;154822.75;;;19.26;100.00
33506;BME280;19843;51.040;13.782;2022-11-20T09:48:10;154838.31;;;19.32;100.00
33506;BME280;19843;51.040;13.782;2022-11-20T09:50:45;154853.88;;;19.38;100.00
33506;BME280;19843;51.040;13.782;2022-11-20T09:53:21;154873.34;;;19.46;100.00
33506;BME280;19843;51.040;13.782;2022-11-20T09:55:50;154891.53;;;19.53;100.00
33506;BME280;19843;51.040;13.782;2022-11-20T09:58:25;154903.19;;;19.58;100.00
33506;BME280;19843;51.040;13.782;2022-11-20T10:01:01;154911.00;;;19.61;100.00
33506;BME280;19843;51.040;13.782;2022-11-20T10:03:38;154936.91;;;19.71;100.00
33506;BME280;19843;51.040;13.782;2022-11-20T10:06:11;155356.00;;;21.34;93.31
33506;BME280;19843;51.040;13.782;2022-11-20T10:08:43;155113.31;;;20.40;96.58
33506;BME280;19843;51.040;13.782;2022-11-20T10:11:15;154978.41;;;19.87;100.00
33506;BME280;19843;51.040;13.782;2022-11-20T10:13:54;155023.75;;;20.05;100.00
33506;BME280;19843;51.040;13.782;2022-11-20T10:16:35;154933.00;;;19.69;97.32
33506;BME280;19843;51.040;13.782;2022-11-20T10:19:18;154917.44;;;19.63;98.74
33506;BME280;19843;51.040;13.782;2022-11-20T10:21:59;154913.53;;;19.62;100.00
33506;BME280;19843;51.040;13.782;2022-11-20T10:24:44;154903.19;;;19.58;100.00
33506;BME280;19843;51.040;13.782;2022-11-20T10:27:33;154896.72;;;19.55;100.00
33506;BME280;19843;51.040;13.782;2022-11-20T10:30:09;154887.63;;;19.52;100.00
33506;BME280;19843;51.040;13.782;2022-11-20T10:32:39;154898.03;;;19.56;100.00
33506;BME280;19843;51.040;13.782;2022-11-20T10:35:18;154895.44;;;19.55;100.00
33506;BME280;19843;51.040;13.782;2022-11-20T10:37:50;154891.53;;;19.53;100.00
33506;BME280;19843;51.040;13.782;2022-11-20T10:40:29;154895.44;;;19.55;100.00
33506;BME280;19843;51.040;13.782;2022-11-20T10:43:01;154892.81;;;19.54;100.00
33506;BME280;19843;51.040;13.782;2022-11-20T10:45:53;154892.81;;;19.54;100.00
33506;BME280;19843;51.040;13.782;2022-11-20T10:48:25;154894.13;;;19.54;100.00
33506;BME280;19843;51.040;13.782;2022-11-20T10:50:59;154895.44;;;19.55;100.00
33506;BME280;19843;51.040;13.782;2022-11-20T10:53:53;154895.44;;;19.55;100.00
33506;BME280;19843;51.040;13.782;2022-11-20T10:56:25;154898.03;;;19.56;100.00
33506;BME280;19843;51.040;13.782;2022-11-20T11:01:58;154935.59;;;19.70;100.00
33506;BME280;19843;51.040;13.782;2022-11-20T11:04:37;154925.25;;;19.66;100.00
33506;BME280;19843;51.040;13.782;2022-11-20T11:07:11;154913.53;;;19.62;100.00
33506;BME280;19843;51.040;13.782;2022-11-20T11:09:43;154921.34;;;19.65;100.00
33506;BME280;19843;51.040;13.782;2022-11-20T11:12:11;154936.91;;;19.71;100.00
33506;BME280;19843;51.040;13.782;2022-11-20T11:14:44;154931.72;;;19.69;100.00
33506;BME280;19843;51.040;13.782;2022-11-20T11:17:24;154921.34;;;19.65;100.00
33506;BME280;19843;51.040;13.782;2022-11-20T11:20:00;154914.84;;;19.62;100.00
33506;BME280;19843;51.040;13.782;2022-11-20T11:22:29;154669.84;;;18.67;93.26
33506;BME280;19843;51.040;13.782;2022-11-20T11:24:57;154511.78;;;18.05;86.92
33506;BME280;19843;51.040;13.782;2022-11-20T11:27:25;154566.19;;;18.26;92.60
33506;BME280;19843;51.040;13.782;2022-11-20T11:30:03;154612.84;;;18.44;98.59
33506;BME280;19843;51.040;13.782;2022-11-20T11:32:31;154643.94;;;18.56;100.00
33506;BME280;19843;51.040;13.782;2022-11-20T11:35:01;154678.94;;;18.70;100.00
33506;BME280;19843;51.040;13.782;2022-11-20T11:37:33;154713.91;;;18.84;100.00
33506;BME280;19843;51.040;13.782;2022-11-20T11:40:02;154739.81;;;18.94;100.00
33506;BME280;19843;51.040;13.782;2022-11-20T11:42:54;154759.28;;;19.02;100.00
33506;BME280;19843;51.040;13.782;2022-11-20T11:45:23;154770.94;;;19.06;100.00
33506;BME280;19843;51.040;13.782;2022-11-20T11:47:50;154789.09;;;19.13;98.73
33506;BME280;19843;51.040;13.782;2022-11-20T11:50:21;154802.06;;;19.18;98.91
33506;BME280;19843;51.040;13.782;2022-11-20T11:53:06;154811.09;;;19.22;98.66
33506;BME280;19843;51.040;13.782;2022-11-20T11:55:38;154817.63;;;19.24;99.06
33506;BME280;19843;51.040;13.782;2022-11-20T11:58:16;154824.06;;;19.27;98.89
33506;BME280;19843;51.040;13.782;2022-11-20T12:00:54;154825.38;;;19.27;98.50
33506;BME280;19843;51.040;13.782;2022-11-20T12:03:27;154834.41;;;19.31;99.06
33506;BME280;19843;51.040;13.782;2022-11-20T12:05:59;154837.03;;;19.32;99.21
33506;BME280;19843;51.040;13.782;2022-11-20T12:08:32;154839.63;;;19.33;99.71
33506;BME280;19843;51.040;13.782;2022-11-20T12:11:05;154840.94;;;19.33;99.89
33506;BME280;19843;51.040;13.782;2022-11-20T12:13:44;154840.94;;;19.33;99.62
33506;BME280;19843;51.040;13.782;2022-11-20T12:16:18;154877.25;;;19.48;100.00
33506;BME280;19843;51.040;13.782;2022-11-20T12:18:48;154890.22;;;19.53;100.00
33506;BME280;19843;51.040;13.782;2022-11-20T12:21:26;154903.19;;;19.58;100.00
33506;BME280;19843;51.040;13.782;2022-11-20T12:24:11;154914.84;;;19.62;100.00
33506;BME280;19843;51.040;13.782;2022-11-20T12:26:54;154934.31;;;19.70;100.00
33506;BME280;19843;51.040;13.782;2022-11-20T12:29:32;154939.50;;;19.72;100.00
33506;BME280;19843;51.040;13.782;2022-11-20T12:32:22;154940.78;;;19.72;100.00
33506;BME280;19843;51.040;13.782;2022-11-20T12:35:00;154944.66;;;19.74;100.00
33506;BME280;19843;51.040;13.782;2022-11-20T12:37:45;154949.88;;;19.76;100.00
33506;BME280;19843;51.040;13.782;2022-11-20T12:40:24;154953.72;;;19.77;100.00
33506;BME280;19843;51.040;13.782;2022-11-20T12:43:04;154942.06;;;19.73;100.00
33506;BME280;19843;51.040;13.782;2022-11-20T12:46:05;154921.34;;;19.65;100.00
33506;BME280;19843;51.040;13.782;2022-11-20T12:48:45;154912.28;;;19.61;100.00
33506;BME280;19843;51.040;13.782;2022-11-20T12:51:24;154908.38;;;19.60;100.00